sensor_id;sensor_type;location;lat;lon;timestamp;P1;durP1;ratioP1;P2;durP2;ratioP2
8044;SDS011;4065;48.754;9.982;2022-10-16T00:01:05;7.18;;;5.47;;
8044;SDS011;4065;48.754;9.982;2022-10-16T00:04:08;4.30;;;3.70;;
8044;SDS011;4065;48.754;9.982;2022-10-16T00:07:09;4.90;;;3.33;;
8044;SDS011;4065;48.754;9.982;2022-10-16T00:10:11;5.57;;;3.47;;
8044;SDS011;4065;48.754;9.982;2022-10-16T00:13:12;4.65;;;3.78;;
8044;SDS011;4065;48.754;9.982;2022-10-16T00:16:16;6.85;;;3.75;;
8044;SDS011;4065;48.754;9.982;2022-10-16T00:19:18;8.30;;;3.83;;
8044;SDS011;4065;48.754;9.982;2022-10-16T00:22:19;6.25;;;3.70;;
8044;SDS011;4065;48.754;9.982;2022-10-16T00:25:21;6.55;;;3.53;;
8044;SDS011;4065;48.754;9.982;2022-10-16T00:28:22;5.32;;;4.18;;
8044;SDS011;4065;48.754;9.982;2022-10-16T00:31:26;8.13;;;4.07;;
8044;SDS011;4065;48.754;9.982;2022-10-16T00:34:27;6.50;;;3.60;;
8044;SDS011;4065;48.754;9.982;2022-10-16T00:37:29;5.45;;;3.35;;
8044;SDS011;4065;48.754;9.982;2022-10-16T00:40:31;6.53;;;3.38;;
8044;SDS011;4065;48.754;9.982;2022-10-16T00:43:33;7.30;;;3.30;;
8044;SDS011;4065;48.754;9.982;2022-10-16T00:46:39;4.43;;;3.65;;
8044;SDS011;4065;48.754;9.982;2022-10-16T00:49:42;5.70;;;3.05;;
8044;SDS011;4065;48.754;9.982;2022-10-16T00:52:44;3.55;;;3.10;;
8044;SDS011;4065;48.754;9.982;2022-10-16T00:55:47;3.72;;;2.88;;
8044;SDS011;4065;48.754;9.982;2022-10-16T00:58:49;3.92;;;2.92;;
8044;SDS011;4065;48.754;9.982;2022-10-16T01:01:52;6.55;;;3.20;;
8044;SDS011;4065;48.754;9.982;2022-10-16T01:04:54;5.13;;;3.30;;
8044;SDS011;4065;48.754;9.982;2022-10-16T01:07:56;3.15;;;2.92;;
8044;SDS011;4065;48.754;9.982;2022-10-16T01:11:03;3.47;;;2.75;;
8044;SDS011;4065;48.754;9.982;2022-10-16T01:14:11;2.90;;;2.50;;
8044;SDS011;4065;48.754;9.982;2022-10-16T01:17:18;3.38;;;3.08;;
8044;SDS011;4065;48.754;9.982;2022-10-16T01:20:25;3.03;;;2.72;;
8044;SDS011;4065;48.754;9.982;2022-10-16T01:23:32;4.47;;;2.85;;
8044;SDS011;4065;48.754;9.982;2022-10-16T01:26:47;3.22;;;2.70;;
8044;SDS011;4065;48.754;9.982;2022-10-16T01:30:02;5.03;;;2.70;;
8044;SDS011;4065;48.754;9.982;2022-10-16T01:33:08;2.85;;;2.50;;
8044;SDS011;4065;48.754;9.982;2022-10-16T01:36:12;3.92;;;2.80;;
8044;SDS011;4065;48.754;9.982;2022-10-16T01:39:15;6.85;;;2.75;;
8044;SDS011;4065;48.754;9.982;2022-10-16T01:42:21;3.33;;;3.00;;
8044;SDS011;4065;48.754;9.982;2022-10-16T01:45:25;4.05;;;2.65;;
8044;SDS011;4065;48.754;9.982;2022-10-16T01:48:30;6.70;;;2.65;;
8044;SDS011;4065;48.754;9.982;2022-10-16T01:51:32;8.02;;;3.17;;
8044;SDS011;4065;48.754;9.982;2022-10-16T01:54:34;6.28;;;2.83;;
8044;SDS011;4065;48.754;9.982;2022-10-16T01:57:38;7.75;;;2.90;;
8044;SDS011;4065;48.754;9.982;2022-10-16T02:00:44;4.68;;;3.30;;
8044;SDS011;4065;48.754;9.982;2022-10-16T02:03:48;3.25;;;2.75;;
8044;SDS011;4065;48.754;9.982;2022-10-16T02:06:52;3.80;;;3.03;;
8044;SDS011;4065;48.754;9.982;2022-10-16T02:09:53;3.88;;;2.95;;
8044;SDS011;4065;48.754;9.982;2022-10-16T02:12:57;3.78;;;2.80;;
8044;SDS011;4065;48.754;9.982;2022-10-16T02:16:01;3.65;;;2.83;;
8044;SDS011;4065;48.754;9.982;2022-10-16T02:19:03;2.90;;;2.70;;
8044;SDS011;4065;48.754;9.982;2022-10-16T02:22:05;2.78;;;2.58;;
8044;SDS011;4065;48.754;9.982;2022-10-16T02:25:09;3.00;;;2.70;;
8044;SDS011;4065;48.754;9.982;2022-10-16T02:28:14;10.32;;;2.95;;
8044;SDS011;4065;48.754;9.982;2022-10-16T02:31:18;4.97;;;2.90;;
8044;SDS011;4065;48.754;9.982;2022-10-16T02:34:22;3.63;;;2.75;;
8044;SDS011;4065;48.754;9.982;2022-10-16T02:37:25;3.45;;;2.60;;
8044;SDS011;4065;48.754;9.982;2022-10-16T02:40:27;3.13;;;2.83;;
8044;SDS011;4065;48.754;9.982;2022-10-16T02:43:30;4.18;;;2.72;;
8044;SDS011;4065;48.754;9.982;2022-10-16T02:46:33;4.20;;;3.03;;
8044;SDS011;4065;48.754;9.982;2022-10-16T02:49:34;4.85;;;3.08;;
8044;SDS011;4065;48.754;9.982;2022-10-16T02:52:36;4.47;;;2.38;;
8044;SDS011;4065;48.754;9.982;2022-10-16T02:55:37;5.45;;;2.70;;
8044;SDS011;4065;48.754;9.982;2022-10-16T02:58:40;3.40;;;2.95;;
8044;SDS011;4065;48.754;9.982;2022-10-16T03:01:42;3.58;;;3.05;;
8044;SDS011;4065;48.754;9.982;2022-10-16T03:04:44;5.95;;;2.80;;
8044;SDS011;4065;48.754;9.982;2022-10-16T03:07:45;4.20;;;2.90;;
8044;SDS011;4065;48.754;9.982;2022-10-16T03:10:47;6.68;;;3.53;;
8044;SDS011;4065;48.754;9.982;2022-10-16T03:13:50;6.18;;;2.80;;
8044;SDS011;4065;48.754;9.982;2022-10-16T03:16:51;3.17;;;2.80;;
8044;SDS011;4065;48.754;9.982;2022-10-16T03:19:53;2.97;;;2.78;;
8044;SDS011;4065;48.754;9.982;2022-10-16T03:22:54;3.60;;;3.03;;
8044;SDS011;4065;48.754;9.982;2022-10-16T03:25:56;5.20;;;4.00;;
8044;SDS011;4065;48.754;9.982;2022-10-16T03:28:59;8.90;;;5.35;;
8044;SDS011;4065;48.754;9.982;2022-10-16T03:32:02;5.78;;;4.90;;
8044;SDS011;4065;48.754;9.982;2022-10-16T03:35:04;4.75;;;4.07;;
8044;SDS011;4065;48.754;9.982;2022-10-16T03:38:06;7.57;;;5.38;;
8044;SDS011;4065;48.754;9.982;2022-10-16T03:41:08;7.82;;;4.03;;
8044;SDS011;4065;48.754;9.982;2022-10-16T03:44:11;7.90;;;4.38;;
8044;SDS011;4065;48.754;9.982;2022-10-16T03:47:12;3.75;;;3.45;;
8044;SDS011;4065;48.754;9.982;2022-10-16T03:50:14;6.55;;;3.78;;
8044;SDS011;4065;48.754;9.982;2022-10-16T03:53:15;4.75;;;3.60;;
8044;SDS011;4065;48.754;9.982;2022-10-16T03:56:17;6.47;;;3.70;;
8044;SDS011;4065;48.754;9.982;2022-10-16T03:59:20;4.20;;;3.60;;
8044;SDS011;4065;48.754;9.982;2022-10-16T04:02:21;4.10;;;3.33;;
8044;SDS011;4065;48.754;9.982;2022-10-16T04:05:23;10.63;;;5.82;;
8044;SDS011;4065;48.754;9.982;2022-10-16T04:08:25;6.38;;;5.03;;
8044;SDS011;4065;48.754;9.982;2022-10-16T04:11:26;5.20;;;4.60;;
8044;SDS011;4065;48.754;9.982;2022-10-16T04:14:29;4.80;;;4.10;;
8044;SDS011;4065;48.754;9.982;2022-10-16T04:17:31;5.07;;;4.22;;
8044;SDS011;4065;48.754;9.982;2022-10-16T04:20:32;4.25;;;3.85;;
8044;SDS011;4065;48.754;9.982;2022-10-16T04:23:34;4.82;;;3.90;;
8044;SDS011;4065;48.754;9.982;2022-10-16T04:26:36;4.90;;;4.32;;
8044;SDS011;4065;48.754;9.982;2022-10-16T04:29:38;4.88;;;4.10;;
8044;SDS011;4065;48.754;9.982;2022-10-16T04:32:40;4.10;;;3.70;;
8044;SDS011;4065;48.754;9.982;2022-10-16T04:35:42;5.07;;;4.10;;
8044;SDS011;4065;48.754;9.982;2022-10-16T04:38:43;7.68;;;3.58;;
8044;SDS011;4065;48.754;9.982;2022-10-16T04:41:45;6.43;;;4.22;;
8044;SDS011;4065;48.754;9.982;2022-10-16T04:44:48;4.95;;;3.70;;
8044;SDS011;4065;48.754;9.982;2022-10-16T04:47:49;6.97;;;3.53;;
8044;SDS011;4065;48.754;9.982;2022-10-16T04:50:51;4.97;;;3.72;;
8044;SDS011;4065;48.754;9.982;2022-10-16T04:53:53;3.92;;;3.63;;
8044;SDS011;4065;48.754;9.982;2022-10-16T04:56:55;9.02;;;3.90;;
8044;SDS011;4065;48.754;9.982;2022-10-16T04:59:58;8.45;;;4.40;;
8044;SDS011;4065;48.754;9.982;2022-10-16T05:02:59;5.15;;;3.33;;
8044;SDS011;4065;48.754;9.982;2022-10-16T05:06:01;8.93;;;4.13;;
8044;SDS011;4065;48.754;9.982;2022-10-16T05:09:04;5.05;;;3.67;;
8044;SDS011;4065;48.754;9.982;2022-10-16T05:12:05;4.47;;;4.03;;
8044;SDS011;4065;48.754;9.982;2022-10-16T05:15:09;6.05;;;3.83;;
8044;SDS011;4065;48.754;9.982;2022-10-16T05:18:10;5.75;;;4.55;;
8044;SDS011;4065;48.754;9.982;2022-10-16T05:21:12;6.63;;;5.63;;
8044;SDS011;4065;48.754;9.982;2022-10-16T05:24:14;8.00;;;6.00;;
8044;SDS011;4065;48.754;9.982;2022-10-16T05:27:15;6.72;;;5.78;;
8044;SDS011;4065;48.754;9.982;2022-10-16T05:30:21;7.40;;;6.57;;
8044;SDS011;4065;48.754;9.982;2022-10-16T05:33:22;6.90;;;6.15;;
8044;SDS011;4065;48.754;9.982;2022-10-16T05:36:25;8.00;;;6.25;;
8044;SDS011;4065;48.754;9.982;2022-10-16T05:39:26;8.05;;;6.45;;
8044;SDS011;4065;48.754;9.982;2022-10-16T05:42:28;6.60;;;5.80;;
8044;SDS011;4065;48.754;9.982;2022-10-16T05:45:31;5.75;;;4.97;;
8044;SDS011;4065;48.754;9.982;2022-10-16T05:48:33;5.38;;;4.88;;
8044;SDS011;4065;48.754;9.982;2022-10-16T05:51:34;6.22;;;5.65;;
8044;SDS011;4065;48.754;9.982;2022-10-16T05:54:36;5.97;;;5.15;;
8044;SDS011;4065;48.754;9.982;2022-10-16T05:57:37;16.20;;;9.00;;
8044;SDS011;4065;48.754;9.982;2022-10-16T06:00:41;17.00;;;9.85;;
8044;SDS011;4065;48.754;9.982;2022-10-16T06:03:42;11.25;;;8.13;;
8044;SDS011;4065;48.754;9.982;2022-10-16T06:06:44;15.38;;;8.75;;
8044;SDS011;4065;48.754;9.982;2022-10-16T06:09:47;16.15;;;9.02;;
8044;SDS011;4065;48.754;9.982;2022-10-16T06:12:49;21.95;;;12.77;;
8044;SDS011;4065;48.754;9.982;2022-10-16T06:15:52;19.30;;;11.63;;
8044;SDS011;4065;48.754;9.982;2022-10-16T06:18:54;15.50;;;9.88;;
8044;SDS011;4065;48.754;9.982;2022-10-16T06:21:56;11.45;;;9.35;;
8044;SDS011;4065;48.754;9.982;2022-10-16T06:24:58;12.35;;;9.57;;
8044;SDS011;4065;48.754;9.982;2022-10-16T06:28:00;15.10;;;10.38;;
8044;SDS011;4065;48.754;9.982;2022-10-16T06:31:03;14.77;;;10.40;;
8044;SDS011;4065;48.754;9.982;2022-10-16T06:34:05;18.20;;;9.60;;
8044;SDS011;4065;48.754;9.982;2022-10-16T06:37:09;12.23;;;8.95;;
8044;SDS011;4065;48.754;9.982;2022-10-16T06:40:10;10.00;;;7.90;;
8044;SDS011;4065;48.754;9.982;2022-10-16T06:43:14;10.02;;;7.72;;
8044;SDS011;4065;48.754;9.982;2022-10-16T06:46:17;10.43;;;8.55;;
8044;SDS011;4065;48.754;9.982;2022-10-16T06:49:20;11.18;;;7.78;;
8044;SDS011;4065;48.754;9.982;2022-10-16T06:52:23;10.02;;;6.88;;
8044;SDS011;4065;48.754;9.982;2022-10-16T06:55:24;9.13;;;6.88;;
8044;SDS011;4065;48.754;9.982;2022-10-16T06:58:26;7.35;;;6.32;;
8044;SDS011;4065;48.754;9.982;2022-10-16T07:01:29;7.20;;;6.50;;
8044;SDS011;4065;48.754;9.982;2022-10-16T07:04:30;10.27;;;7.75;;
8044;SDS011;4065;48.754;9.982;2022-10-16T07:07:32;7.55;;;6.82;;
8044;SDS011;4065;48.754;9.982;2022-10-16T07:10:34;9.00;;;6.40;;
8044;SDS011;4065;48.754;9.982;2022-10-16T07:13:36;7.13;;;6.43;;
8044;SDS011;4065;48.754;9.982;2022-10-16T07:16:39;7.10;;;6.40;;
8044;SDS011;4065;48.754;9.982;2022-10-16T07:19:41;7.45;;;6.50;;
8044;SDS011;4065;48.754;9.982;2022-10-16T07:22:42;7.45;;;6.03;;
8044;SDS011;4065;48.754;9.982;2022-10-16T07:25:44;6.05;;;5.55;;
8044;SDS011;4065;48.754;9.982;2022-10-16T07:28:46;5.85;;;5.32;;
8044;SDS011;4065;48.754;9.982;2022-10-16T07:31:49;6.18;;;5.57;;
8044;SDS011;4065;48.754;9.982;2022-10-16T07:34:50;6.28;;;5.50;;
8044;SDS011;4065;48.754;9.982;2022-10-16T07:37:52;7.43;;;5.57;;
8044;SDS011;4065;48.754;9.982;2022-10-16T07:40:56;6.22;;;5.63;;
8044;SDS011;4065;48.754;9.982;2022-10-16T07:43:59;7.43;;;5.50;;
8044;SDS011;4065;48.754;9.982;2022-10-16T07:47:02;8.07;;;5.93;;
8044;SDS011;4065;48.754;9.982;2022-10-16T07:50:04;9.40;;;6.90;;
8044;SDS011;4065;48.754;9.982;2022-10-16T07:53:05;7.47;;;6.50;;
8044;SDS011;4065;48.754;9.982;2022-10-16T07:56:07;9.15;;;5.70;;
8044;SDS011;4065;48.754;9.982;2022-10-16T07:59:09;8.13;;;5.80;;
8044;SDS011;4065;48.754;9.982;2022-10-16T08:02:12;5.80;;;5.20;;
8044;SDS011;4065;48.754;9.982;2022-10-16T08:05:14;5.72;;;5.18;;
8044;SDS011;4065;48.754;9.982;2022-10-16T08:08:16;4.53;;;4.13;;
8044;SDS011;4065;48.754;9.982;2022-10-16T08:11:19;5.32;;;4.82;;
8044;SDS011;4065;48.754;9.982;2022-10-16T08:14:20;6.70;;;4.50;;
8044;SDS011;4065;48.754;9.982;2022-10-16T08:17:24;4.35;;;3.90;;
8044;SDS011;4065;48.754;9.982;2022-10-16T08:20:25;8.20;;;3.58;;
8044;SDS011;4065;48.754;9.982;2022-10-16T08:23:27;3.53;;;3.17;;
8044;SDS011;4065;48.754;9.982;2022-10-16T08:26:29;5.35;;;3.20;;
8044;SDS011;4065;48.754;9.982;2022-10-16T08:29:31;3.63;;;3.03;;
8044;SDS011;4065;48.754;9.982;2022-10-16T08:32:37;5.10;;;2.63;;
8044;SDS011;4065;48.754;9.982;2022-10-16T08:35:39;4.40;;;2.72;;
8044;SDS011;4065;48.754;9.982;2022-10-16T08:38:40;3.40;;;2.55;;
8044;SDS011;4065;48.754;9.982;2022-10-16T08:45:14;3.08;;;2.60;;
8044;SDS011;4065;48.754;9.982;2022-10-16T08:48:23;4.95;;;2.65;;
8044;SDS011;4065;48.754;9.982;2022-10-16T08:51:29;3.45;;;2.58;;
8044;SDS011;4065;48.754;9.982;2022-10-16T08:54:32;4.55;;;2.78;;
8044;SDS011;4065;48.754;9.982;2022-10-16T08:57:40;3.85;;;2.50;;
8044;SDS011;4065;48.754;9.982;2022-10-16T09:00:43;2.58;;;2.38;;
8044;SDS011;4065;48.754;9.982;2022-10-16T09:07:22;4.57;;;2.30;;
8044;SDS011;4065;48.754;9.982;2022-10-16T09:10:31;2.88;;;2.40;;
8044;SDS011;4065;48.754;9.982;2022-10-16T09:13:43;5.03;;;2.30;;
8044;SDS011;4065;48.754;9.982;2022-10-16T09:16:51;3.60;;;2.05;;
8044;SDS011;4065;48.754;9.982;2022-10-16T09:19:58;2.63;;;2.25;;
8044;SDS011;4065;48.754;9.982;2022-10-16T09:23:10;2.30;;;2.10;;
8044;SDS011;4065;48.754;9.982;2022-10-16T09:26:15;2.47;;;2.17;;
8044;SDS011;4065;48.754;9.982;2022-10-16T09:29:22;2.72;;;2.17;;
8044;SDS011;4065;48.754;9.982;2022-10-16T09:32:25;5.57;;;2.38;;
8044;SDS011;4065;48.754;9.982;2022-10-16T09:35:31;3.00;;;2.13;;
8044;SDS011;4065;48.754;9.982;2022-10-16T09:38:37;2.53;;;1.88;;
8044;SDS011;4065;48.754;9.982;2022-10-16T09:41:39;5.38;;;2.33;;
8044;SDS011;4065;48.754;9.982;2022-10-16T09:44:46;2.10;;;1.90;;
8044;SDS011;4065;48.754;9.982;2022-10-16T09:47:49;2.88;;;2.58;;
8044;SDS011;4065;48.754;9.982;2022-10-16T09:50:58;2.85;;;2.33;;
8044;SDS011;4065;48.754;9.982;2022-10-16T09:54:01;3.00;;;2.40;;
8044;SDS011;4065;48.754;9.982;2022-10-16T09:57:12;4.35;;;2.75;;
8044;SDS011;4065;48.754;9.982;2022-10-16T10:00:16;5.32;;;2.63;;
8044;SDS011;4065;48.754;9.982;2022-10-16T10:03:30;2.40;;;2.20;;
8044;SDS011;4065;48.754;9.982;2022-10-16T10:06:37;4.30;;;2.55;;
8044;SDS011;4065;48.754;9.982;2022-10-16T10:09:42;2.97;;;2.47;;
8044;SDS011;4065;48.754;9.982;2022-10-16T10:12:45;5.97;;;2.30;;
8044;SDS011;4065;48.754;9.982;2022-10-16T10:15:47;4.25;;;2.35;;
8044;SDS011;4065;48.754;9.982;2022-10-16T10:18:57;5.35;;;2.67;;
8044;SDS011;4065;48.754;9.982;2022-10-16T10:22:00;3.92;;;2.25;;
8044;SDS011;4065;48.754;9.982;2022-10-16T10:25:15;3.10;;;2.05;;
8044;SDS011;4065;48.754;9.982;2022-10-16T10:28:23;3.58;;;2.08;;
8044;SDS011;4065;48.754;9.982;2022-10-16T10:31:33;4.57;;;2.10;;
8044;SDS011;4065;48.754;9.982;2022-10-16T10:34:45;5.38;;;2.70;;
8044;SDS011;4065;48.754;9.982;2022-10-16T10:37:58;2.97;;;2.20;;
8044;SDS011;4065;48.754;9.982;2022-10-16T10:41:08;5.32;;;2.40;;
8044;SDS011;4065;48.754;9.982;2022-10-16T10:44:19;3.30;;;2.25;;
8044;SDS011;4065;48.754;9.982;2022-10-16T10:47:30;3.05;;;2.15;;
8044;SDS011;4065;48.754;9.982;2022-10-16T10:50:39;7.00;;;2.28;;
8044;SDS011;4065;48.754;9.982;2022-10-16T10:53:44;4.50;;;2.28;;
8044;SDS011;4065;48.754;9.982;2022-10-16T10:56:50;2.83;;;2.03;;
8044;SDS011;4065;48.754;9.982;2022-10-16T11:00:01;2.42;;;2.10;;
8044;SDS011;4065;48.754;9.982;2022-10-16T11:03:07;3.63;;;2.38;;
8044;SDS011;4065;48.754;9.982;2022-10-16T11:06:16;9.07;;;2.28;;
8044;SDS011;4065;48.754;9.982;2022-10-16T11:09:21;2.72;;;2.15;;
8044;SDS011;4065;48.754;9.982;2022-10-16T11:12:27;4.88;;;1.90;;
8044;SDS011;4065;48.754;9.982;2022-10-16T11:15:31;4.35;;;2.00;;
8044;SDS011;4065;48.754;9.982;2022-10-16T11:18:39;4.60;;;2.03;;
8044;SDS011;4065;48.754;9.982;2022-10-16T11:21:49;3.30;;;2.10;;
8044;SDS011;4065;48.754;9.982;2022-10-16T11:24:59;2.15;;;1.95;;
8044;SDS011;4065;48.754;9.982;2022-10-16T11:28:06;3.15;;;2.10;;
8044;SDS011;4065;48.754;9.982;2022-10-16T11:31:12;2.92;;;2.17;;
8044;SDS011;4065;48.754;9.982;2022-10-16T11:34:19;3.13;;;2.08;;
8044;SDS011;4065;48.754;9.982;2022-10-16T11:37:24;2.00;;;1.63;;
8044;SDS011;4065;48.754;9.982;2022-10-16T11:40:30;2.22;;;1.92;;
8044;SDS011;4065;48.754;9.982;2022-10-16T11:43:34;4.07;;;1.85;;
8044;SDS011;4065;48.754;9.982;2022-10-16T11:46:40;4.32;;;2.10;;
8044;SDS011;4065;48.754;9.982;2022-10-16T11:49:45;3.33;;;1.65;;
8044;SDS011;4065;48.754;9.982;2022-10-16T11:52:51;1.83;;;1.67;;
8044;SDS011;4065;48.754;9.982;2022-10-16T11:55:56;2.45;;;1.80;;
8044;SDS011;4065;48.754;9.982;2022-10-16T11:58:58;2.38;;;2.03;;
8044;SDS011;4065;48.754;9.982;2022-10-16T12:02:08;4.20;;;1.90;;
8044;SDS011;4065;48.754;9.982;2022-10-16T12:05:32;2.15;;;1.88;;
8044;SDS011;4065;48.754;9.982;2022-10-16T12:08:36;1.80;;;1.58;;
8044;SDS011;4065;48.754;9.982;2022-10-16T12:11:39;2.38;;;1.70;;
8044;SDS011;4065;48.754;9.982;2022-10-16T12:14:41;2.75;;;1.85;;
8044;SDS011;4065;48.754;9.982;2022-10-16T12:17:43;2.35;;;1.70;;
8044;SDS011;4065;48.754;9.982;2022-10-16T12:20:44;2.58;;;1.75;;
8044;SDS011;4065;48.754;9.982;2022-10-16T12:24:02;2.50;;;1.60;;
8044;SDS011;4065;48.754;9.982;2022-10-16T12:27:06;1.95;;;1.75;;
8044;SDS011;4065;48.754;9.982;2022-10-16T12:30:23;2.30;;;1.80;;
8044;SDS011;4065;48.754;9.982;2022-10-16T12:33:27;3.38;;;1.90;;
8044;SDS011;4065;48.754;9.982;2022-10-16T12:36:30;2.40;;;1.52;;
8044;SDS011;4065;48.754;9.982;2022-10-16T12:39:32;2.55;;;1.63;;
8044;SDS011;4065;48.754;9.982;2022-10-16T12:42:35;1.67;;;1.55;;
8044;SDS011;4065;48.754;9.982;2022-10-16T12:45:37;1.98;;;1.55;;
8044;SDS011;4065;48.754;9.982;2022-10-16T12:48:39;2.00;;;1.80;;
8044;SDS011;4065;48.754;9.982;2022-10-16T12:51:42;1.80;;;1.60;;
8044;SDS011;4065;48.754;9.982;2022-10-16T12:54:44;1.88;;;1.50;;
8044;SDS011;4065;48.754;9.982;2022-10-16T12:57:50;1.85;;;1.30;;
8044;SDS011;4065;48.754;9.982;2022-10-16T13:01:03;2.35;;;1.40;;
8044;SDS011;4065;48.754;9.982;2022-10-16T13:07:48;2.25;;;1.58;;
8044;SDS011;4065;48.754;9.982;2022-10-16T13:11:00;2.38;;;1.38;;
8044;SDS011;4065;48.754;9.982;2022-10-16T13:14:14;2.05;;;1.52;;
8044;SDS011;4065;48.754;9.982;2022-10-16T13:17:25;2.65;;;1.42;;
8044;SDS011;4065;48.754;9.982;2022-10-16T13:20:34;5.13;;;1.80;;
8044;SDS011;4065;48.754;9.982;2022-10-16T13:23:38;2.88;;;1.38;;
8044;SDS011;4065;48.754;9.982;2022-10-16T13:26:49;2.15;;;1.60;;
8044;SDS011;4065;48.754;9.982;2022-10-16T13:29:59;2.90;;;1.48;;
8044;SDS011;4065;48.754;9.982;2022-10-16T13:33:03;3.47;;;1.60;;
8044;SDS011;4065;48.754;9.982;2022-10-16T13:36:17;3.67;;;1.73;;
8044;SDS011;4065;48.754;9.982;2022-10-16T13:39:22;2.33;;;1.70;;
8044;SDS011;4065;48.754;9.982;2022-10-16T13:42:24;2.40;;;1.58;;
8044;SDS011;4065;48.754;9.982;2022-10-16T13:45:29;1.70;;;1.60;;
8044;SDS011;4065;48.754;9.982;2022-10-16T13:48:31;2.25;;;1.52;;
8044;SDS011;4065;48.754;9.982;2022-10-16T13:51:34;1.50;;;1.40;;
8044;SDS011;4065;48.754;9.982;2022-10-16T13:54:35;4.45;;;2.20;;
8044;SDS011;4065;48.754;9.982;2022-10-16T13:57:37;1.98;;;1.63;;
8044;SDS011;4065;48.754;9.982;2022-10-16T14:00:40;2.45;;;1.75;;
8044;SDS011;4065;48.754;9.982;2022-10-16T14:03:42;2.67;;;1.80;;
8044;SDS011;4065;48.754;9.982;2022-10-16T14:06:45;2.67;;;1.63;;
8044;SDS011;4065;48.754;9.982;2022-10-16T14:09:49;3.95;;;1.85;;
8044;SDS011;4065;48.754;9.982;2022-10-16T14:12:55;1.65;;;1.40;;
8044;SDS011;4065;48.754;9.982;2022-10-16T14:16:00;2.47;;;1.55;;
8044;SDS011;4065;48.754;9.982;2022-10-16T14:19:05;3.25;;;1.60;;
8044;SDS011;4065;48.754;9.982;2022-10-16T14:22:27;2.80;;;1.98;;
8044;SDS011;4065;48.754;9.982;2022-10-16T14:25:31;3.67;;;1.67;;
8044;SDS011;4065;48.754;9.982;2022-10-16T14:28:33;3.67;;;1.60;;
8044;SDS011;4065;48.754;9.982;2022-10-16T14:31:37;1.70;;;1.38;;
8044;SDS011;4065;48.754;9.982;2022-10-16T14:34:39;1.92;;;1.50;;
8044;SDS011;4065;48.754;9.982;2022-10-16T14:37:41;3.78;;;1.75;;
8044;SDS011;4065;48.754;9.982;2022-10-16T14:40:45;2.90;;;1.60;;
8044;SDS011;4065;48.754;9.982;2022-10-16T14:43:49;2.75;;;1.80;;
8044;SDS011;4065;48.754;9.982;2022-10-16T14:46:53;2.78;;;1.80;;
8044;SDS011;4065;48.754;9.982;2022-10-16T14:49:55;2.17;;;1.73;;
8044;SDS011;4065;48.754;9.982;2022-10-16T14:52:58;2.42;;;1.40;;
8044;SDS011;4065;48.754;9.982;2022-10-16T14:56:05;3.40;;;1.88;;
8044;SDS011;4065;48.754;9.982;2022-10-16T14:59:07;3.00;;;1.77;;
8044;SDS011;4065;48.754;9.982;2022-10-16T15:02:18;4.20;;;1.73;;
8044;SDS011;4065;48.754;9.982;2022-10-16T15:05:23;7.28;;;2.00;;
8044;SDS011;4065;48.754;9.982;2022-10-16T15:08:26;2.20;;;1.92;;
8044;SDS011;4065;48.754;9.982;2022-10-16T15:11:27;4.63;;;1.70;;
8044;SDS011;4065;48.754;9.982;2022-10-16T15:14:29;4.38;;;1.65;;
8044;SDS011;4065;48.754;9.982;2022-10-16T15:17:32;2.63;;;1.85;;
8044;SDS011;4065;48.754;9.982;2022-10-16T15:20:34;3.35;;;1.80;;
8044;SDS011;4065;48.754;9.982;2022-10-16T15:23:37;2.47;;;1.85;;
8044;SDS011;4065;48.754;9.982;2022-10-16T15:26:38;2.58;;;1.67;;
8044;SDS011;4065;48.754;9.982;2022-10-16T15:29:40;3.83;;;2.05;;
8044;SDS011;4065;48.754;9.982;2022-10-16T15:32:43;2.35;;;1.65;;
8044;SDS011;4065;48.754;9.982;2022-10-16T15:35:45;3.28;;;2.25;;
8044;SDS011;4065;48.754;9.982;2022-10-16T15:38:47;7.00;;;1.98;;
8044;SDS011;4065;48.754;9.982;2022-10-16T15:41:49;3.25;;;1.80;;
8044;SDS011;4065;48.754;9.982;2022-10-16T15:44:53;2.67;;;1.90;;
8044;SDS011;4065;48.754;9.982;2022-10-16T15:47:56;5.28;;;2.20;;
8044;SDS011;4065;48.754;9.982;2022-10-16T15:50:57;5.07;;;2.22;;
8044;SDS011;4065;48.754;9.982;2022-10-16T15:53:59;4.30;;;2.47;;
8044;SDS011;4065;48.754;9.982;2022-10-16T15:57:02;2.65;;;2.30;;
8044;SDS011;4065;48.754;9.982;2022-10-16T16:00:05;7.22;;;3.17;;
8044;SDS011;4065;48.754;9.982;2022-10-16T16:03:09;3.35;;;2.70;;
8044;SDS011;4065;48.754;9.982;2022-10-16T16:06:12;3.30;;;2.55;;
8044;SDS011;4065;48.754;9.982;2022-10-16T16:09:14;6.13;;;3.72;;
8044;SDS011;4065;48.754;9.982;2022-10-16T16:12:16;5.50;;;4.95;;
8044;SDS011;4065;48.754;9.982;2022-10-16T16:15:18;9.75;;;6.50;;
8044;SDS011;4065;48.754;9.982;2022-10-16T16:18:21;9.40;;;6.00;;
8044;SDS011;4065;48.754;9.982;2022-10-16T16:21:23;6.90;;;5.47;;
8044;SDS011;4065;48.754;9.982;2022-10-16T16:24:25;9.00;;;5.00;;
8044;SDS011;4065;48.754;9.982;2022-10-16T16:27:27;8.48;;;5.25;;
8044;SDS011;4065;48.754;9.982;2022-10-16T16:30:29;6.50;;;5.07;;
8044;SDS011;4065;48.754;9.982;2022-10-16T16:33:32;6.40;;;4.82;;
8044;SDS011;4065;48.754;9.982;2022-10-16T16:36:34;11.48;;;4.90;;
8044;SDS011;4065;48.754;9.982;2022-10-16T16:39:36;8.88;;;3.88;;
8044;SDS011;4065;48.754;9.982;2022-10-16T16:42:37;6.55;;;3.30;;
8044;SDS011;4065;48.754;9.982;2022-10-16T16:45:39;12.43;;;5.43;;
8044;SDS011;4065;48.754;9.982;2022-10-16T16:48:42;9.80;;;4.70;;
8044;SDS011;4065;48.754;9.982;2022-10-16T16:51:45;7.55;;;5.22;;
8044;SDS011;4065;48.754;9.982;2022-10-16T16:54:47;8.75;;;5.80;;
8044;SDS011;4065;48.754;9.982;2022-10-16T16:57:51;5.75;;;5.15;;
8044;SDS011;4065;48.754;9.982;2022-10-16T17:00:53;5.68;;;5.10;;
8044;SDS011;4065;48.754;9.982;2022-10-16T17:03:57;10.82;;;5.18;;
8044;SDS011;4065;48.754;9.982;2022-10-16T17:06:59;10.52;;;6.20;;
8044;SDS011;4065;48.754;9.982;2022-10-16T17:10:01;20.48;;;11.95;;
8044;SDS011;4065;48.754;9.982;2022-10-16T17:13:03;124.00;;;50.47;;
8044;SDS011;4065;48.754;9.982;2022-10-16T17:16:05;121.03;;;51.35;;
8044;SDS011;4065;48.754;9.982;2022-10-16T17:19:10;48.03;;;24.50;;
8044;SDS011;4065;48.754;9.982;2022-10-16T17:22:13;16.10;;;10.55;;
8044;SDS011;4065;48.754;9.982;2022-10-16T17:25:15;33.00;;;18.35;;
8044;SDS011;4065;48.754;9.982;2022-10-16T17:28:16;16.10;;;11.63;;
8044;SDS011;4065;48.754;9.982;2022-10-16T17:31:19;30.98;;;18.67;;
8044;SDS011;4065;48.754;9.982;2022-10-16T17:34:23;23.50;;;16.20;;
8044;SDS011;4065;48.754;9.982;2022-10-16T17:37:25;14.68;;;11.27;;
8044;SDS011;4065;48.754;9.982;2022-10-16T17:40:27;17.17;;;11.20;;
8044;SDS011;4065;48.754;9.982;2022-10-16T17:43:28;22.95;;;13.35;;
8044;SDS011;4065;48.754;9.982;2022-10-16T17:46:30;10.32;;;6.50;;
8044;SDS011;4065;48.754;9.982;2022-10-16T17:49:33;13.23;;;6.85;;
8044;SDS011;4065;48.754;9.982;2022-10-16T17:52:34;8.13;;;3.95;;
8044;SDS011;4065;48.754;9.982;2022-10-16T17:55:37;12.45;;;8.23;;
8044;SDS011;4065;48.754;9.982;2022-10-16T17:58:39;7.35;;;4.28;;
8044;SDS011;4065;48.754;9.982;2022-10-16T18:01:41;6.00;;;4.85;;
8044;SDS011;4065;48.754;9.982;2022-10-16T18:04:46;13.32;;;7.63;;
8044;SDS011;4065;48.754;9.982;2022-10-16T18:07:47;9.82;;;7.45;;
8044;SDS011;4065;48.754;9.982;2022-10-16T18:10:49;12.77;;;7.70;;
8044;SDS011;4065;48.754;9.982;2022-10-16T18:13:51;12.23;;;6.68;;
8044;SDS011;4065;48.754;9.982;2022-10-16T18:16:53;16.50;;;8.07;;
8044;SDS011;4065;48.754;9.982;2022-10-16T18:19:57;9.25;;;6.97;;
8044;SDS011;4065;48.754;9.982;2022-10-16T18:22:58;11.88;;;6.85;;
8044;SDS011;4065;48.754;9.982;2022-10-16T18:26:00;11.38;;;6.47;;
8044;SDS011;4065;48.754;9.982;2022-10-16T18:29:02;7.97;;;6.78;;
8044;SDS011;4065;48.754;9.982;2022-10-16T18:32:04;10.32;;;7.30;;
8044;SDS011;4065;48.754;9.982;2022-10-16T18:35:07;11.85;;;8.52;;
8044;SDS011;4065;48.754;9.982;2022-10-16T18:38:09;10.95;;;7.97;;
8044;SDS011;4065;48.754;9.982;2022-10-16T18:41:10;9.25;;;7.38;;
8044;SDS011;4065;48.754;9.982;2022-10-16T18:44:12;13.10;;;7.50;;
8044;SDS011;4065;48.754;9.982;2022-10-16T18:47:14;16.27;;;5.65;;
8044;SDS011;4065;48.754;9.982;2022-10-16T18:50:17;12.85;;;7.13;;
8044;SDS011;4065;48.754;9.982;2022-10-16T18:53:18;8.00;;;6.03;;
8044;SDS011;4065;48.754;9.982;2022-10-16T18:56:20;9.55;;;5.65;;
8044;SDS011;4065;48.754;9.982;2022-10-16T18:59:23;8.23;;;4.72;;
8044;SDS011;4065;48.754;9.982;2022-10-16T19:02:25;5.53;;;4.28;;
8044;SDS011;4065;48.754;9.982;2022-10-16T19:05:28;8.95;;;4.70;;
8044;SDS011;4065;48.754;9.982;2022-10-16T19:08:29;11.57;;;4.82;;